sensor_id;sensor_type;location;lat;lon;timestamp;P1;durP1;ratioP1;P2;durP2;ratioP2
41253;SDS011;26987;59.928;30.306;2023-07-02T00:00:04;7.07;;;2.88;;
41253;SDS011;26987;59.928;30.306;2023-07-02T00:02:36;6.28;;;3.05;;
41253;SDS011;26987;59.928;30.306;2023-07-02T00:05:05;5.13;;;2.40;;
41253;SDS011;26987;59.928;30.306;2023-07-02T00:07:35;8.75;;;2.65;;
41253;SDS011;26987;59.928;30.306;2023-07-02T00:10:03;5.20;;;2.38;;
41253;SDS011;26987;59.928;30.306;2023-07-02T00:12:32;6.88;;;2.25;;
41253;SDS011;26987;59.928;30.306;2023-07-02T00:15:00;5.95;;;2.40;;
41253;SDS011;26987;59.928;30.306;2023-07-02T00:17:29;6.13;;;2.47;;
41253;SDS011;26987;59.928;30.306;2023-07-02T00:19:57;3.85;;;2.33;;
41253;SDS011;26987;59.928;30.306;2023-07-02T00:22:28;4.88;;;2.47;;
41253;SDS011;26987;59.928;30.306;2023-07-02T00:24:58;6.10;;;2.50;;
41253;SDS011;26987;59.928;30.306;2023-07-02T00:27:26;6.55;;;2.70;;
41253;SDS011;26987;59.928;30.306;2023-07-02T00:29:54;7.93;;;2.40;;
41253;SDS011;26987;59.928;30.306;2023-07-02T00:32:22;5.60;;;2.45;;
41253;SDS011;26987;59.928;30.306;2023-07-02T00:34:50;5.90;;;2.90;;
41253;SDS011;26987;59.928;30.306;2023-07-02T00:37:18;7.28;;;3.03;;
41253;SDS011;26987;59.928;30.306;2023-07-02T00:39:46;7.00;;;3.28;;
41253;SDS011;26987;59.928;30.306;2023-07-02T00:42:15;6.32;;;2.55;;
41253;SDS011;26987;59.928;30.306;2023-07-02T00:44:43;6.72;;;3.40;;
41253;SDS011;26987;59.928;30.306;2023-07-02T00:47:12;4.80;;;2.80;;
41253;SDS011;26987;59.928;30.306;2023-07-02T00:49:40;4.78;;;2.83;;
41253;SDS011;26987;59.928;30.306;2023-07-02T00:52:08;9.70;;;3.05;;
41253;SDS011;26987;59.928;30.306;2023-07-02T00:54:36;6.25;;;3.08;;
41253;SDS011;26987;59.928;30.306;2023-07-02T00:57:04;10.43;;;3.15;;
41253;SDS011;26987;59.928;30.306;2023-07-02T00:59:33;7.93;;;3.65;;
41253;SDS011;26987;59.928;30.306;2023-07-02T01:02:04;4.95;;;2.80;;
41253;SDS011;26987;59.928;30.306;2023-07-02T01:04:34;8.38;;;3.10;;
41253;SDS011;26987;59.928;30.306;2023-07-02T01:07:03;11.40;;;3.80;;
41253;SDS011;26987;59.928;30.306;2023-07-02T01:09:35;11.48;;;3.53;;
41253;SDS011;26987;59.928;30.306;2023-07-02T01:12:04;12.65;;;3.70;;
41253;SDS011;26987;59.928;30.306;2023-07-02T01:14:38;5.30;;;2.83;;
41253;SDS011;26987;59.928;30.306;2023-07-02T01:17:08;7.97;;;2.90;;
41253;SDS011;26987;59.928;30.306;2023-07-02T01:19:43;9.40;;;3.30;;
41253;SDS011;26987;59.928;30.306;2023-07-02T01:22:17;5.25;;;2.72;;
41253;SDS011;26987;59.928;30.306;2023-07-02T01:24:45;10.55;;;3.97;;
41253;SDS011;26987;59.928;30.306;2023-07-02T01:27:15;10.27;;;3.15;;
41253;SDS011;26987;59.928;30.306;2023-07-02T01:29:43;7.85;;;2.97;;
41253;SDS011;26987;59.928;30.306;2023-07-02T01:32:12;8.02;;;3.25;;
41253;SDS011;26987;59.928;30.306;2023-07-02T01:34:42;8.80;;;3.30;;
41253;SDS011;26987;59.928;30.306;2023-07-02T01:37:14;6.82;;;3.78;;
41253;SDS011;26987;59.928;30.306;2023-07-02T01:39:42;6.93;;;3.17;;
41253;SDS011;26987;59.928;30.306;2023-07-02T01:42:11;7.40;;;2.90;;
41253;SDS011;26987;59.928;30.306;2023-07-02T01:44:42;10.52;;;3.33;;
41253;SDS011;26987;59.928;30.306;2023-07-02T01:47:10;9.02;;;3.63;;
41253;SDS011;26987;59.928;30.306;2023-07-02T01:49:38;10.88;;;3.45;;
41253;SDS011;26987;59.928;30.306;2023-07-02T01:52:08;9.45;;;3.70;;
41253;SDS011;26987;59.928;30.306;2023-07-02T01:54:36;8.25;;;3.38;;
41253;SDS011;26987;59.928;30.306;2023-07-02T01:57:04;6.30;;;3.15;;
41253;SDS011;26987;59.928;30.306;2023-07-02T01:59:32;7.78;;;3.05;;
41253;SDS011;26987;59.928;30.306;2023-07-02T02:02:00;10.13;;;3.80;;
41253;SDS011;26987;59.928;30.306;2023-07-02T02:04:28;13.30;;;5.05;;
41253;SDS011;26987;59.928;30.306;2023-07-02T02:06:56;11.65;;;4.40;;
41253;SDS011;26987;59.928;30.306;2023-07-02T02:09:25;6.70;;;4.35;;
41253;SDS011;26987;59.928;30.306;2023-07-02T02:11:54;8.23;;;3.35;;
41253;SDS011;26987;59.928;30.306;2023-07-02T02:14:22;10.50;;;3.33;;
41253;SDS011;26987;59.928;30.306;2023-07-02T02:16:50;6.80;;;3.38;;
41253;SDS011;26987;59.928;30.306;2023-07-02T02:19:18;5.65;;;2.97;;
41253;SDS011;26987;59.928;30.306;2023-07-02T02:21:45;12.80;;;3.33;;
41253;SDS011;26987;59.928;30.306;2023-07-02T02:24:13;6.28;;;2.67;;
41253;SDS011;26987;59.928;30.306;2023-07-02T02:26:43;7.75;;;3.00;;
41253;SDS011;26987;59.928;30.306;2023-07-02T02:29:11;9.40;;;3.15;;
41253;SDS011;26987;59.928;30.306;2023-07-02T02:31:38;14.27;;;3.30;;
41253;SDS011;26987;59.928;30.306;2023-07-02T02:34:06;5.68;;;3.33;;
41253;SDS011;26987;59.928;30.306;2023-07-02T02:36:34;5.50;;;3.05;;
41253;SDS011;26987;59.928;30.306;2023-07-02T02:39:02;9.77;;;3.58;;
41253;SDS011;26987;59.928;30.306;2023-07-02T02:41:31;6.28;;;3.45;;
41253;SDS011;26987;59.928;30.306;2023-07-02T02:44:01;7.20;;;3.00;;
41253;SDS011;26987;59.928;30.306;2023-07-02T02:46:29;9.25;;;3.00;;
41253;SDS011;26987;59.928;30.306;2023-07-02T02:48:57;4.90;;;2.60;;
41253;SDS011;26987;59.928;30.306;2023-07-02T02:51:25;7.13;;;3.17;;
41253;SDS011;26987;59.928;30.306;2023-07-02T02:53:53;6.28;;;2.85;;
41253;SDS011;26987;59.928;30.306;2023-07-02T02:56:21;8.20;;;3.10;;
41253;SDS011;26987;59.928;30.306;2023-07-02T02:58:49;6.05;;;3.03;;
41253;SDS011;26987;59.928;30.306;2023-07-02T03:01:18;7.80;;;3.08;;
41253;SDS011;26987;59.928;30.306;2023-07-02T03:03:46;6.20;;;2.75;;
41253;SDS011;26987;59.928;30.306;2023-07-02T03:06:14;8.32;;;3.20;;
41253;SDS011;26987;59.928;30.306;2023-07-02T03:08:42;8.05;;;2.95;;
41253;SDS011;26987;59.928;30.306;2023-07-02T03:11:10;11.27;;;3.65;;
41253;SDS011;26987;59.928;30.306;2023-07-02T03:13:38;8.02;;;3.50;;
41253;SDS011;26987;59.928;30.306;2023-07-02T03:16:06;8.20;;;3.28;;
41253;SDS011;26987;59.928;30.306;2023-07-02T03:18:36;8.55;;;2.97;;
41253;SDS011;26987;59.928;30.306;2023-07-02T03:21:05;8.45;;;3.22;;
41253;SDS011;26987;59.928;30.306;2023-07-02T03:23:32;7.32;;;3.25;;
41253;SDS011;26987;59.928;30.306;2023-07-02T03:26:00;5.55;;;2.75;;
41253;SDS011;26987;59.928;30.306;2023-07-02T03:28:28;7.30;;;3.47;;
41253;SDS011;26987;59.928;30.306;2023-07-02T03:30:56;9.63;;;3.42;;
41253;SDS011;26987;59.928;30.306;2023-07-02T03:33:24;7.05;;;2.95;;
41253;SDS011;26987;59.928;30.306;2023-07-02T03:35:53;8.30;;;2.72;;
41253;SDS011;26987;59.928;30.306;2023-07-02T03:38:21;6.47;;;2.70;;
41253;SDS011;26987;59.928;30.306;2023-07-02T03:40:49;11.27;;;4.25;;
41253;SDS011;26987;59.928;30.306;2023-07-02T03:43:16;6.57;;;2.95;;
41253;SDS011;26987;59.928;30.306;2023-07-02T03:45:44;10.85;;;2.65;;
41253;SDS011;26987;59.928;30.306;2023-07-02T03:48:12;9.20;;;3.13;;
41253;SDS011;26987;59.928;30.306;2023-07-02T03:50:40;7.10;;;3.72;;
41253;SDS011;26987;59.928;30.306;2023-07-02T03:53:09;7.90;;;3.33;;
41253;SDS011;26987;59.928;30.306;2023-07-02T03:55:37;6.97;;;3.05;;
41253;SDS011;26987;59.928;30.306;2023-07-02T03:58:06;5.90;;;3.13;;
41253;SDS011;26987;59.928;30.306;2023-07-02T04:00:34;4.63;;;3.03;;
41253;SDS011;26987;59.928;30.306;2023-07-02T04:03:02;7.28;;;3.00;;
41253;SDS011;26987;59.928;30.306;2023-07-02T04:05:30;10.68;;;3.53;;
41253;SDS011;26987;59.928;30.306;2023-07-02T04:07:57;6.38;;;2.53;;
41253;SDS011;26987;59.928;30.306;2023-07-02T04:10:27;7.50;;;2.72;;
41253;SDS011;26987;59.928;30.306;2023-07-02T04:12:55;6.45;;;3.10;;
41253;SDS011;26987;59.928;30.306;2023-07-02T04:15:22;9.90;;;3.08;;
41253;SDS011;26987;59.928;30.306;2023-07-02T04:17:52;10.20;;;2.53;;
41253;SDS011;26987;59.928;30.306;2023-07-02T04:20:20;5.85;;;2.72;;
41253;SDS011;26987;59.928;30.306;2023-07-02T04:22:48;7.13;;;3.10;;
41253;SDS011;26987;59.928;30.306;2023-07-02T04:25:16;6.03;;;3.20;;
41253;SDS011;26987;59.928;30.306;2023-07-02T04:27:45;5.93;;;2.40;;
41253;SDS011;26987;59.928;30.306;2023-07-02T04:30:13;9.50;;;3.20;;
41253;SDS011;26987;59.928;30.306;2023-07-02T04:32:41;4.90;;;2.60;;
41253;SDS011;26987;59.928;30.306;2023-07-02T04:35:09;5.22;;;2.88;;
41253;SDS011;26987;59.928;30.306;2023-07-02T04:37:38;7.57;;;2.72;;
41253;SDS011;26987;59.928;30.306;2023-07-02T04:40:06;11.18;;;2.75;;
41253;SDS011;26987;59.928;30.306;2023-07-02T04:42:36;7.22;;;2.40;;
41253;SDS011;26987;59.928;30.306;2023-07-02T04:45:06;6.68;;;2.55;;
41253;SDS011;26987;59.928;30.306;2023-07-02T04:47:34;5.65;;;2.65;;
41253;SDS011;26987;59.928;30.306;2023-07-02T04:50:03;6.03;;;2.60;;
41253;SDS011;26987;59.928;30.306;2023-07-02T04:52:31;7.18;;;2.50;;
41253;SDS011;26987;59.928;30.306;2023-07-02T04:54:59;4.32;;;2.13;;
41253;SDS011;26987;59.928;30.306;2023-07-02T04:57:27;5.20;;;2.45;;
41253;SDS011;26987;59.928;30.306;2023-07-02T04:59:55;6.40;;;3.05;;
41253;SDS011;26987;59.928;30.306;2023-07-02T05:02:24;6.30;;;2.90;;
41253;SDS011;26987;59.928;30.306;2023-07-02T05:04:52;6.72;;;3.13;;
41253;SDS011;26987;59.928;30.306;2023-07-02T05:07:20;6.75;;;2.60;;
41253;SDS011;26987;59.928;30.306;2023-07-02T05:09:48;6.55;;;3.03;;
41253;SDS011;26987;59.928;30.306;2023-07-02T05:12:17;8.30;;;3.53;;
41253;SDS011;26987;59.928;30.306;2023-07-02T05:14:45;8.50;;;2.97;;
41253;SDS011;26987;59.928;30.306;2023-07-02T05:17:13;4.75;;;2.90;;
41253;SDS011;26987;59.928;30.306;2023-07-02T05:19:43;5.95;;;2.90;;
41253;SDS011;26987;59.928;30.306;2023-07-02T05:22:11;6.93;;;2.85;;
41253;SDS011;26987;59.928;30.306;2023-07-02T05:24:38;5.80;;;2.30;;
41253;SDS011;26987;59.928;30.306;2023-07-02T05:27:07;5.38;;;2.67;;
41253;SDS011;26987;59.928;30.306;2023-07-02T05:29:35;5.60;;;2.58;;
41253;SDS011;26987;59.928;30.306;2023-07-02T05:32:03;6.07;;;2.80;;
41253;SDS011;26987;59.928;30.306;2023-07-02T05:34:31;5.63;;;2.60;;
41253;SDS011;26987;59.928;30.306;2023-07-02T05:37:01;8.00;;;2.80;;
41253;SDS011;26987;59.928;30.306;2023-07-02T05:39:29;8.52;;;3.33;;
41253;SDS011;26987;59.928;30.306;2023-07-02T05:41:56;5.80;;;2.88;;
41253;SDS011;26987;59.928;30.306;2023-07-02T05:44:24;6.85;;;2.80;;
41253;SDS011;26987;59.928;30.306;2023-07-02T05:46:52;4.07;;;2.58;;
41253;SDS011;26987;59.928;30.306;2023-07-02T05:49:20;9.23;;;2.80;;
41253;SDS011;26987;59.928;30.306;2023-07-02T05:51:48;6.50;;;2.50;;
41253;SDS011;26987;59.928;30.306;2023-07-02T05:54:18;4.47;;;2.50;;
41253;SDS011;26987;59.928;30.306;2023-07-02T05:56:45;7.43;;;2.58;;
41253;SDS011;26987;59.928;30.306;2023-07-02T05:59:13;4.57;;;2.78;;
41253;SDS011;26987;59.928;30.306;2023-07-02T06:01:43;8.00;;;3.10;;
41253;SDS011;26987;59.928;30.306;2023-07-02T06:04:11;11.07;;;4.75;;
41253;SDS011;26987;59.928;30.306;2023-07-02T06:06:39;6.45;;;2.75;;
41253;SDS011;26987;59.928;30.306;2023-07-02T06:09:07;6.07;;;2.40;;
41253;SDS011;26987;59.928;30.306;2023-07-02T06:11:37;6.57;;;2.80;;
41253;SDS011;26987;59.928;30.306;2023-07-02T06:14:05;6.57;;;2.88;;
41253;SDS011;26987;59.928;30.306;2023-07-02T06:16:33;8.98;;;2.53;;
41253;SDS011;26987;59.928;30.306;2023-07-02T06:19:01;6.43;;;2.75;;
41253;SDS011;26987;59.928;30.306;2023-07-02T06:21:29;5.53;;;2.42;;
41253;SDS011;26987;59.928;30.306;2023-07-02T06:23:57;6.43;;;2.80;;
41253;SDS011;26987;59.928;30.306;2023-07-02T06:26:25;4.03;;;2.50;;
41253;SDS011;26987;59.928;30.306;2023-07-02T06:28:54;6.30;;;2.90;;
41253;SDS011;26987;59.928;30.306;2023-07-02T06:31:23;6.50;;;2.58;;
41253;SDS011;26987;59.928;30.306;2023-07-02T06:33:50;5.75;;;2.60;;
41253;SDS011;26987;59.928;30.306;2023-07-02T06:36:18;4.82;;;2.50;;
41253;SDS011;26987;59.928;30.306;2023-07-02T06:38:46;6.57;;;2.95;;
41253;SDS011;26987;59.928;30.306;2023-07-02T06:41:14;6.53;;;2.65;;
41253;SDS011;26987;59.928;30.306;2023-07-02T06:43:42;6.03;;;2.40;;
41253;SDS011;26987;59.928;30.306;2023-07-02T06:46:12;8.43;;;3.30;;
41253;SDS011;26987;59.928;30.306;2023-07-02T06:48:40;5.78;;;2.92;;
41253;SDS011;26987;59.928;30.306;2023-07-02T06:51:08;4.65;;;2.78;;
41253;SDS011;26987;59.928;30.306;2023-07-02T06:53:38;6.30;;;2.67;;
41253;SDS011;26987;59.928;30.306;2023-07-02T06:56:07;6.47;;;2.60;;
41253;SDS011;26987;59.928;30.306;2023-07-02T06:58:35;7.30;;;3.25;;
41253;SDS011;26987;59.928;30.306;2023-07-02T07:01:03;4.70;;;2.35;;
41253;SDS011;26987;59.928;30.306;2023-07-02T07:03:32;5.15;;;2.60;;
41253;SDS011;26987;59.928;30.306;2023-07-02T07:06:00;7.00;;;2.63;;
41253;SDS011;26987;59.928;30.306;2023-07-02T07:08:28;4.75;;;3.00;;
41253;SDS011;26987;59.928;30.306;2023-07-02T07:10:56;6.97;;;2.38;;
41253;SDS011;26987;59.928;30.306;2023-07-02T07:13:24;3.78;;;2.30;;
41253;SDS011;26987;59.928;30.306;2023-07-02T07:15:52;5.55;;;2.40;;
41253;SDS011;26987;59.928;30.306;2023-07-02T07:18:20;5.65;;;2.67;;
41253;SDS011;26987;59.928;30.306;2023-07-02T07:20:49;5.40;;;2.53;;
41253;SDS011;26987;59.928;30.306;2023-07-02T07:23:18;6.40;;;2.90;;
41253;SDS011;26987;59.928;30.306;2023-07-02T07:25:46;8.20;;;2.95;;
41253;SDS011;26987;59.928;30.306;2023-07-02T07:28:14;10.60;;;2.70;;
41253;SDS011;26987;59.928;30.306;2023-07-02T07:30:42;8.80;;;2.90;;
41253;SDS011;26987;59.928;30.306;2023-07-02T07:33:11;6.25;;;2.20;;
41253;SDS011;26987;59.928;30.306;2023-07-02T07:35:38;5.15;;;2.38;;
41253;SDS011;26987;59.928;30.306;2023-07-02T07:38:08;4.72;;;2.60;;
41253;SDS011;26987;59.928;30.306;2023-07-02T07:40:36;7.13;;;3.25;;
41253;SDS011;26987;59.928;30.306;2023-07-02T07:43:03;5.50;;;2.78;;
41253;SDS011;26987;59.928;30.306;2023-07-02T07:45:31;9.82;;;2.72;;
41253;SDS011;26987;59.928;30.306;2023-07-02T07:48:00;6.60;;;3.05;;
41253;SDS011;26987;59.928;30.306;2023-07-02T07:50:28;6.75;;;3.33;;
41253;SDS011;26987;59.928;30.306;2023-07-02T07:52:56;5.53;;;2.40;;
41253;SDS011;26987;59.928;30.306;2023-07-02T07:55:25;9.27;;;3.25;;
41253;SDS011;26987;59.928;30.306;2023-07-02T07:57:53;4.15;;;2.53;;
41253;SDS011;26987;59.928;30.306;2023-07-02T08:00:21;8.55;;;2.70;;
41253;SDS011;26987;59.928;30.306;2023-07-02T08:02:50;5.35;;;2.45;;
41253;SDS011;26987;59.928;30.306;2023-07-02T08:05:21;6.35;;;2.30;;
41253;SDS011;26987;59.928;30.306;2023-07-02T08:07:49;5.88;;;2.33;;
41253;SDS011;26987;59.928;30.306;2023-07-02T08:10:17;4.15;;;2.55;;
41253;SDS011;26987;59.928;30.306;2023-07-02T08:12:46;6.43;;;2.42;;
41253;SDS011;26987;59.928;30.306;2023-07-02T08:15:15;5.20;;;2.33;;
41253;SDS011;26987;59.928;30.306;2023-07-02T08:17:43;8.02;;;2.75;;
41253;SDS011;26987;59.928;30.306;2023-07-02T08:20:11;8.02;;;2.38;;
41253;SDS011;26987;59.928;30.306;2023-07-02T08:22:39;5.25;;;2.38;;
41253;SDS011;26987;59.928;30.306;2023-07-02T08:25:08;5.38;;;2.20;;
41253;SDS011;26987;59.928;30.306;2023-07-02T08:27:36;4.38;;;2.22;;
41253;SDS011;26987;59.928;30.306;2023-07-02T08:30:06;4.18;;;2.58;;
41253;SDS011;26987;59.928;30.306;2023-07-02T08:32:34;6.40;;;2.70;;
41253;SDS011;26987;59.928;30.306;2023-07-02T08:35:02;5.68;;;2.70;;
41253;SDS011;26987;59.928;30.306;2023-07-02T08:37:30;8.50;;;2.97;;
41253;SDS011;26987;59.928;30.306;2023-07-02T08:39:58;8.00;;;2.90;;
41253;SDS011;26987;59.928;30.306;2023-07-02T08:42:26;5.45;;;2.78;;
41253;SDS011;26987;59.928;30.306;2023-07-02T08:44:55;6.20;;;2.75;;
41253;SDS011;26987;59.928;30.306;2023-07-02T08:47:27;6.93;;;3.03;;
41253;SDS011;26987;59.928;30.306;2023-07-02T08:49:55;7.13;;;2.47;;
41253;SDS011;26987;59.928;30.306;2023-07-02T08:52:23;7.03;;;2.30;;
41253;SDS011;26987;59.928;30.306;2023-07-02T08:54:51;6.63;;;2.67;;
41253;SDS011;26987;59.928;30.306;2023-07-02T08:57:20;7.75;;;3.17;;
41253;SDS011;26987;59.928;30.306;2023-07-02T08:59:48;9.10;;;4.38;;
41253;SDS011;26987;59.928;30.306;2023-07-02T09:02:17;6.05;;;3.22;;
41253;SDS011;26987;59.928;30.306;2023-07-02T09:04:46;8.90;;;3.10;;
41253;SDS011;26987;59.928;30.306;2023-07-02T09:07:14;12.77;;;3.40;;
41253;SDS011;26987;59.928;30.306;2023-07-02T09:09:45;13.93;;;4.55;;
41253;SDS011;26987;59.928;30.306;2023-07-02T09:12:23;13.18;;;3.92;;
41253;SDS011;26987;59.928;30.306;2023-07-02T09:14:55;10.18;;;3.53;;
41253;SDS011;26987;59.928;30.306;2023-07-02T09:17:27;8.45;;;2.97;;
41253;SDS011;26987;59.928;30.306;2023-07-02T09:19:58;13.70;;;3.35;;
41253;SDS011;26987;59.928;30.306;2023-07-02T09:22:28;8.32;;;3.20;;
41253;SDS011;26987;59.928;30.306;2023-07-02T09:24:57;5.75;;;2.50;;
41253;SDS011;26987;59.928;30.306;2023-07-02T09:27:33;6.82;;;2.78;;
41253;SDS011;26987;59.928;30.306;2023-07-02T09:30:06;5.40;;;3.05;;
41253;SDS011;26987;59.928;30.306;2023-07-02T09:32:35;9.63;;;3.22;;
41253;SDS011;26987;59.928;30.306;2023-07-02T09:35:05;7.63;;;2.95;;
41253;SDS011;26987;59.928;30.306;2023-07-02T09:37:33;8.23;;;3.58;;
41253;SDS011;26987;59.928;30.306;2023-07-02T09:40:02;5.75;;;3.17;;
41253;SDS011;26987;59.928;30.306;2023-07-02T09:42:33;13.00;;;3.92;;
41253;SDS011;26987;59.928;30.306;2023-07-02T09:45:02;7.55;;;3.15;;
41253;SDS011;26987;59.928;30.306;2023-07-02T09:47:33;4.68;;;2.67;;
41253;SDS011;26987;59.928;30.306;2023-07-02T09:50:07;8.25;;;3.20;;
41253;SDS011;26987;59.928;30.306;2023-07-02T09:52:37;9.98;;;3.53;;
41253;SDS011;26987;59.928;30.306;2023-07-02T09:55:06;5.28;;;2.75;;
41253;SDS011;26987;59.928;30.306;2023-07-02T09:57:35;6.50;;;2.97;;
41253;SDS011;26987;59.928;30.306;2023-07-02T10:00:03;5.38;;;2.55;;
41253;SDS011;26987;59.928;30.306;2023-07-02T10:02:33;13.15;;;2.97;;
41253;SDS011;26987;59.928;30.306;2023-07-02T10:05:02;8.35;;;3.05;;
41253;SDS011;26987;59.928;30.306;2023-07-02T10:07:32;8.63;;;3.58;;
41253;SDS011;26987;59.928;30.306;2023-07-02T10:10:00;4.68;;;2.53;;
41253;SDS011;26987;59.928;30.306;2023-07-02T10:12:29;9.90;;;2.92;;
41253;SDS011;26987;59.928;30.306;2023-07-02T10:14:58;10.73;;;2.25;;
41253;SDS011;26987;59.928;30.306;2023-07-02T10:17:26;7.70;;;2.72;;
41253;SDS011;26987;59.928;30.306;2023-07-02T10:19:57;8.80;;;3.40;;
41253;SDS011;26987;59.928;30.306;2023-07-02T10:22:26;5.88;;;2.78;;
41253;SDS011;26987;59.928;30.306;2023-07-02T10:24:55;5.25;;;2.22;;
41253;SDS011;26987;59.928;30.306;2023-07-02T10:27:35;6.15;;;2.70;;
41253;SDS011;26987;59.928;30.306;2023-07-02T10:30:04;4.50;;;2.42;;
41253;SDS011;26987;59.928;30.306;2023-07-02T10:32:34;5.25;;;2.70;;
41253;SDS011;26987;59.928;30.306;2023-07-02T10:35:12;5.60;;;2.17;;
41253;SDS011;26987;59.928;30.306;2023-07-02T10:37:41;4.18;;;2.30;;
41253;SDS011;26987;59.928;30.306;2023-07-02T10:40:11;9.50;;;2.75;;
41253;SDS011;26987;59.928;30.306;2023-07-02T10:42:46;6.40;;;2.40;;
41253;SDS011;26987;59.928;30.306;2023-07-02T10:45:16;7.00;;;2.72;;
41253;SDS011;26987;59.928;30.306;2023-07-02T10:47:44;3.42;;;1.80;;
41253;SDS011;26987;59.928;30.306;2023-07-02T10:50:16;3.35;;;2.50;;
41253;SDS011;26987;59.928;30.306;2023-07-02T10:52:45;4.15;;;2.08;;
41253;SDS011;26987;59.928;30.306;2023-07-02T10:55:18;6.38;;;2.33;;
41253;SDS011;26987;59.928;30.306;2023-07-02T10:57:46;5.57;;;1.90;;
41253;SDS011;26987;59.928;30.306;2023-07-02T11:00:17;6.43;;;2.15;;
41253;SDS011;26987;59.928;30.306;2023-07-02T11:02:45;4.68;;;2.33;;
41253;SDS011;26987;59.928;30.306;2023-07-02T11:05:13;5.00;;;2.05;;
41253;SDS011;26987;59.928;30.306;2023-07-02T11:07:41;3.22;;;1.65;;
41253;SDS011;26987;59.928;30.306;2023-07-02T11:10:10;3.63;;;1.70;;
41253;SDS011;26987;59.928;30.306;2023-07-02T11:15:14;2.95;;;1.58;;
41253;SDS011;26987;59.928;30.306;2023-07-02T11:17:43;4.38;;;1.90;;
41253;SDS011;26987;59.928;30.306;2023-07-02T11:20:12;5.70;;;1.60;;
41253;SDS011;26987;59.928;30.306;2023-07-02T11:22:41;2.20;;;1.52;;
41253;SDS011;26987;59.928;30.306;2023-07-02T11:25:10;5.35;;;1.40;;
41253;SDS011;26987;59.928;30.306;2023-07-02T11:27:39;3.28;;;1.30;;
41253;SDS011;26987;59.928;30.306;2023-07-02T11:30:09;4.55;;;1.50;;
41253;SDS011;26987;59.928;30.306;2023-07-02T11:32:48;6.35;;;1.38;;
41253;SDS011;26987;59.928;30.306;2023-07-02T11:35:17;4.28;;;1.20;;
41253;SDS011;26987;59.928;30.306;2023-07-02T11:37:46;2.95;;;1.20;;
41253;SDS011;26987;59.928;30.306;2023-07-02T11:40:15;2.85;;;1.20;;
41253;SDS011;26987;59.928;30.306;2023-07-02T11:42:45;3.40;;;0.95;;
41253;SDS011;26987;59.928;30.306;2023-07-02T11:45:15;2.42;;;1.00;;
41253;SDS011;26987;59.928;30.306;2023-07-02T11:47:43;3.50;;;1.30;;
41253;SDS011;26987;59.928;30.306;2023-07-02T11:50:10;6.90;;;1.65;;
41253;SDS011;26987;59.928;30.306;2023-07-02T11:52:39;3.33;;;1.15;;
41253;SDS011;26987;59.928;30.306;2023-07-02T11:55:07;4.18;;;1.10;;
41253;SDS011;26987;59.928;30.306;2023-07-02T11:57:35;5.18;;;1.52;;
41253;SDS011;26987;59.928;30.306;2023-07-02T12:00:03;7.50;;;1.40;;
41253;SDS011;26987;59.928;30.306;2023-07-02T12:02:35;4.88;;;1.40;;
41253;SDS011;26987;59.928;30.306;2023-07-02T12:05:03;5.15;;;1.38;;
41253;SDS011;26987;59.928;30.306;2023-07-02T12:07:32;5.03;;;1.75;;
41253;SDS011;26987;59.928;30.306;2023-07-02T12:10:01;5.93;;;1.42;;
41253;SDS011;26987;59.928;30.306;2023-07-02T12:12:29;7.25;;;1.42;;
41253;SDS011;26987;59.928;30.306;2023-07-02T12:14:56;3.53;;;1.77;;
41253;SDS011;26987;59.928;30.306;2023-07-02T12:17:24;2.90;;;1.45;;
41253;SDS011;26987;59.928;30.306;2023-07-02T12:19:53;6.50;;;2.17;;
41253;SDS011;26987;59.928;30.306;2023-07-02T12:22:21;10.90;;;2.15;;
41253;SDS011;26987;59.928;30.306;2023-07-02T12:24:49;10.63;;;2.33;;
41253;SDS011;26987;59.928;30.306;2023-07-02T12:27:19;4.93;;;2.00;;
41253;SDS011;26987;59.928;30.306;2023-07-02T12:29:47;6.32;;;2.10;;
41253;SDS011;26987;59.928;30.306;2023-07-02T12:32:15;8.38;;;2.20;;
41253;SDS011;26987;59.928;30.306;2023-07-02T12:34:43;6.22;;;1.83;;
41253;SDS011;26987;59.928;30.306;2023-07-02T12:37:15;5.57;;;2.45;;
41253;SDS011;26987;59.928;30.306;2023-07-02T12:39:51;3.80;;;1.70;;
41253;SDS011;26987;59.928;30.306;2023-07-02T12:42:19;6.72;;;2.13;;
41253;SDS011;26987;59.928;30.306;2023-07-02T12:44:47;7.38;;;2.00;;
41253;SDS011;26987;59.928;30.306;2023-07-02T12:47:15;6.30;;;2.53;;
41253;SDS011;26987;59.928;30.306;2023-07-02T12:49:42;4.50;;;2.13;;
41253;SDS011;26987;59.928;30.306;2023-07-02T12:52:12;13.23;;;2.13;;
41253;SDS011;26987;59.928;30.306;2023-07-02T12:54:40;5.72;;;1.88;;
41253;SDS011;26987;59.928;30.306;2023-07-02T12:57:08;4.63;;;1.95;;
41253;SDS011;26987;59.928;30.306;2023-07-02T12:59:36;5.55;;;2.13;;
41253;SDS011;26987;59.928;30.306;2023-07-02T13:02:04;3.65;;;2.15;;
41253;SDS011;26987;59.928;30.306;2023-07-02T13:04:33;7.38;;;2.03;;
41253;SDS011;26987;59.928;30.306;2023-07-02T13:07:01;8.40;;;1.83;;
41253;SDS011;26987;59.928;30.306;2023-07-02T13:09:30;6.63;;;2.03;;
41253;SDS011;26987;59.928;30.306;2023-07-02T13:11:58;3.85;;;1.85;;
41253;SDS011;26987;59.928;30.306;2023-07-02T13:14:26;5.20;;;2.05;;
41253;SDS011;26987;59.928;30.306;2023-07-02T13:16:54;6.38;;;2.00;;
41253;SDS011;26987;59.928;30.306;2023-07-02T13:19:22;5.28;;;2.08;;
41253;SDS011;26987;59.928;30.306;2023-07-02T13:21:49;4.03;;;2.00;;
41253;SDS011;26987;59.928;30.306;2023-07-02T13:24:17;4.82;;;2.17;;
41253;SDS011;26987;59.928;30.306;2023-07-02T13:26:47;4.80;;;2.35;;
41253;SDS011;26987;59.928;30.306;2023-07-02T13:29:14;3.25;;;1.63;;
41253;SDS011;26987;59.928;30.306;2023-07-02T13:31:42;3.83;;;1.83;;
41253;SDS011;26987;59.928;30.306;2023-07-02T13:34:10;5.05;;;2.35;;
41253;SDS011;26987;59.928;30.306;2023-07-02T13:36:38;5.35;;;2.40;;
41253;SDS011;26987;59.928;30.306;2023-07-02T13:39:06;5.15;;;2.38;;
41253;SDS011;26987;59.928;30.306;2023-07-02T13:41:34;7.80;;;2.40;;
41253;SDS011;26987;59.928;30.306;2023-07-02T13:44:04;10.68;;;2.28;;
41253;SDS011;26987;59.928;30.306;2023-07-02T13:46:32;4.63;;;2.08;;
41253;SDS011;26987;59.928;30.306;2023-07-02T13:49:00;6.80;;;2.15;;
41253;SDS011;26987;59.928;30.306;2023-07-02T13:51:28;7.05;;;2.80;;
41253;SDS011;26987;59.928;30.306;2023-07-02T13:53:55;4.70;;;2.28;;
41253;SDS011;26987;59.928;30.306;2023-07-02T13:56:23;9.63;;;2.60;;
41253;SDS011;26987;59.928;30.306;2023-07-02T13:59:02;5.53;;;2.50;;
41253;SDS011;26987;59.928;30.306;2023-07-02T14:01:31;6.72;;;2.30;;
41253;SDS011;26987;59.928;30.306;2023-07-02T14:03:59;7.88;;;4.00;;
41253;SDS011;26987;59.928;30.306;2023-07-02T14:06:28;7.07;;;2.65;;
41253;SDS011;26987;59.928;30.306;2023-07-02T14:08:56;5.47;;;2.20;;
41253;SDS011;26987;59.928;30.306;2023-07-02T14:11:25;4.03;;;2.38;;
41253;SDS011;26987;59.928;30.306;2023-07-02T14:13:53;2.38;;;1.70;;
41253;SDS011;26987;59.928;30.306;2023-07-02T14:16:23;6.72;;;2.78;;
41253;SDS011;26987;59.928;30.306;2023-07-02T14:18:51;4.10;;;1.73;;
41253;SDS011;26987;59.928;30.306;2023-07-02T14:21:19;3.60;;;1.33;;
41253;SDS011;26987;59.928;30.306;2023-07-02T14:23:46;4.88;;;1.90;;
41253;SDS011;26987;59.928;30.306;2023-07-02T14:26:14;5.50;;;1.98;;
41253;SDS011;26987;59.928;30.306;2023-07-02T14:28:42;6.55;;;2.22;;
41253;SDS011;26987;59.928;30.306;2023-07-02T14:31:10;3.30;;;2.58;;
41253;SDS011;26987;59.928;30.306;2023-07-02T14:33:40;7.18;;;2.30;;
41253;SDS011;26987;59.928;30.306;2023-07-02T14:36:08;4.65;;;2.50;;
41253;SDS011;26987;59.928;30.306;2023-07-02T14:38:36;4.93;;;2.13;;
41253;SDS011;26987;59.928;30.306;2023-07-02T14:41:04;5.93;;;2.20;;
41253;SDS011;26987;59.928;30.306;2023-07-02T14:43:32;4.22;;;2.28;;